Aérodrome :







RETROUVEZ-NOUS SUR...

 
LOGIN :

S'inscrire | Disclaimer

   EN    FR    IT 

 









Légende :    VFR   VFR Marginal   IFR   IFR Intensif   IFR Très Intensif
Visi : 
Plafond : 
>= 8 km
>= 3000ft
5 à 8 km
1000 à 3000 ft
1500m à 5 km
500 à 1000 ft
800 à 1500m
200 à 500 ft
< 800m
< 200 ft
Symboles :   Orages  Brouillard  Fortes neiges  Fortes précipitations  Vent > 20 kt






- Altitude de l'aérodrome : 203 ft
- Code IATA : YQY


CYQY - Sydney

DERNIER METAR :
  • 090428Z 18011KT 10SM -RA SCT009 OVC078 13/12 A3008 RMK ST3AS5 SLP187

METARs EXPIRÉS :
  • 090400Z 19010KT 15SM FEW009 OVC080 13/12 A3009 RMK ST2AS6 SLP190
  • 090300Z 20009KT 15SM FEW009 OVC085 13/12 A3010 RMK ST2AS6 SLP194
  • 090200Z 19009G15KT 15SM FEW009 OVC092 13/12 A3011 RMK ST2AC6 SLP197

TAF TAF CYQY
Valide du 09 à 00h jusqu'au 09 à 12h UTC


082341Z 0900/0912 20008KT P6SM FEW015 SCT100
TEMPO 0900/0904 BKN015 OVC060
FM090400 19012G22KT P6SM SCT020 OVC060
TEMPO 0904/0907 P6SM -SHRA OVC020
FM090700 19012G22KT P6SM -RA OVC010
TEMPO 0907/0912 2SM -SHRA BR OVC005 RMK NXT FCST BY 090600Z
FIR CZQM / Amérique du Nord



MET'MAP, la Météo Aéronautique d'un coup d'oeil ! - Copyright ORBIFLY Décembre 2007 - Disclaimer

ORBIFLY MET'MAP TEAM :

Programmation & Développement : Alexandra Zaïnal
Sur une idée originale de : Baudouin d'Aumeries
Assistance à la programmation : Marc-Olivier Méhu
Soutien technique & logistique : Manuel Goepfert

Contact : metmap@orbifly.com




SOURCES & CREDITS :

   NOAA